sensor_id;sensor_type;location;lat;lon;timestamp;P1;durP1;ratioP1;P2;durP2;ratioP2
18740;SDS011;9499;52.472;13.448;2023-04-24T00:01:17;2.77;;;1.70;;
18740;SDS011;9499;52.472;13.448;2023-04-24T00:03:44;3.10;;;1.70;;
18740;SDS011;9499;52.472;13.448;2023-04-24T00:06:11;4.17;;;3.07;;
18740;SDS011;9499;52.472;13.448;2023-04-24T00:08:37;2.13;;;1.57;;
18740;SDS011;9499;52.472;13.448;2023-04-24T00:11:04;2.40;;;1.90;;
18740;SDS011;9499;52.472;13.448;2023-04-24T00:13:32;2.43;;;2.20;;
18740;SDS011;9499;52.472;13.448;2023-04-24T00:15:58;5.67;;;1.63;;
18740;SDS011;9499;52.472;13.448;2023-04-24T00:18:25;2.90;;;2.20;;
18740;SDS011;9499;52.472;13.448;2023-04-24T00:20:51;2.63;;;2.43;;
18740;SDS011;9499;52.472;13.448;2023-04-24T00:23:18;2.50;;;2.10;;
18740;SDS011;9499;52.472;13.448;2023-04-24T00:25:45;2.40;;;2.20;;
18740;SDS011;9499;52.472;13.448;2023-04-24T00:28:11;2.90;;;2.10;;
18740;SDS011;9499;52.472;13.448;2023-04-24T00:30:39;2.90;;;2.60;;
18740;SDS011;9499;52.472;13.448;2023-04-24T00:33:06;3.17;;;2.47;;
18740;SDS011;9499;52.472;13.448;2023-04-24T00:35:32;6.70;;;2.40;;
18740;SDS011;9499;52.472;13.448;2023-04-24T00:37:59;2.53;;;2.00;;
18740;SDS011;9499;52.472;13.448;2023-04-24T00:40:26;2.93;;;2.17;;
18740;SDS011;9499;52.472;13.448;2023-04-24T00:42:53;3.17;;;2.10;;
18740;SDS011;9499;52.472;13.448;2023-04-24T00:45:20;2.33;;;2.00;;
18740;SDS011;9499;52.472;13.448;2023-04-24T00:47:48;2.07;;;1.80;;
18740;SDS011;9499;52.472;13.448;2023-04-24T00:50:16;6.40;;;2.27;;
18740;SDS011;9499;52.472;13.448;2023-04-24T00:52:44;3.60;;;2.40;;
18740;SDS011;9499;52.472;13.448;2023-04-24T00:55:10;6.00;;;2.40;;
18740;SDS011;9499;52.472;13.448;2023-04-24T00:57:37;1.90;;;1.70;;
18740;SDS011;9499;52.472;13.448;2023-04-24T01:00:05;3.40;;;3.10;;
18740;SDS011;9499;52.472;13.448;2023-04-24T01:02:36;2.60;;;1.60;;
18740;SDS011;9499;52.472;13.448;2023-04-24T01:05:06;3.03;;;2.67;;
18740;SDS011;9499;52.472;13.448;2023-04-24T01:07:34;2.83;;;2.60;;
18740;SDS011;9499;52.472;13.448;2023-04-24T01:10:01;3.30;;;2.17;;
18740;SDS011;9499;52.472;13.448;2023-04-24T01:12:28;3.10;;;2.53;;
18740;SDS011;9499;52.472;13.448;2023-04-24T01:14:55;2.13;;;1.93;;
18740;SDS011;9499;52.472;13.448;2023-04-24T01:17:22;4.77;;;2.20;;
18740;SDS011;9499;52.472;13.448;2023-04-24T01:19:49;2.20;;;1.60;;
18740;SDS011;9499;52.472;13.448;2023-04-24T01:22:20;2.33;;;2.13;;
18740;SDS011;9499;52.472;13.448;2023-04-24T01:24:46;2.47;;;2.20;;
18740;SDS011;9499;52.472;13.448;2023-04-24T01:27:13;2.07;;;1.87;;
18740;SDS011;9499;52.472;13.448;2023-04-24T01:29:40;2.53;;;2.33;;
18740;SDS011;9499;52.472;13.448;2023-04-24T01:32:06;2.67;;;2.47;;
18740;SDS011;9499;52.472;13.448;2023-04-24T01:34:33;2.20;;;2.00;;
18740;SDS011;9499;52.472;13.448;2023-04-24T01:37:00;2.37;;;2.17;;
18740;SDS011;9499;52.472;13.448;2023-04-24T01:39:28;4.07;;;2.80;;
18740;SDS011;9499;52.472;13.448;2023-04-24T01:41:54;3.53;;;2.33;;
18740;SDS011;9499;52.472;13.448;2023-04-24T01:44:22;2.20;;;1.90;;
18740;SDS011;9499;52.472;13.448;2023-04-24T01:46:49;2.50;;;2.30;;
18740;SDS011;9499;52.472;13.448;2023-04-24T01:49:15;3.67;;;2.07;;
18740;SDS011;9499;52.472;13.448;2023-04-24T01:51:42;2.57;;;2.20;;
18740;SDS011;9499;52.472;13.448;2023-04-24T01:54:09;3.93;;;2.40;;
18740;SDS011;9499;52.472;13.448;2023-04-24T01:56:37;3.10;;;2.80;;
18740;SDS011;9499;52.472;13.448;2023-04-24T01:59:06;2.17;;;2.03;;
18740;SDS011;9499;52.472;13.448;2023-04-24T02:01:35;3.60;;;2.60;;
18740;SDS011;9499;52.472;13.448;2023-04-24T02:04:03;3.33;;;2.30;;
18740;SDS011;9499;52.472;13.448;2023-04-24T02:06:30;4.13;;;2.13;;
18740;SDS011;9499;52.472;13.448;2023-04-24T02:08:57;2.47;;;1.90;;
18740;SDS011;9499;52.472;13.448;2023-04-24T02:11:24;2.33;;;2.13;;
18740;SDS011;9499;52.472;13.448;2023-04-24T02:13:52;3.10;;;2.13;;
18740;SDS011;9499;52.472;13.448;2023-04-24T02:16:19;4.83;;;2.63;;
18740;SDS011;9499;52.472;13.448;2023-04-24T02:18:46;3.63;;;2.70;;
18740;SDS011;9499;52.472;13.448;2023-04-24T02:21:12;3.87;;;2.43;;
18740;SDS011;9499;52.472;13.448;2023-04-24T02:23:39;3.60;;;3.17;;
18740;SDS011;9499;52.472;13.448;2023-04-24T02:26:06;2.17;;;1.90;;
18740;SDS011;9499;52.472;13.448;2023-04-24T02:28:32;2.83;;;2.63;;
18740;SDS011;9499;52.472;13.448;2023-04-24T02:31:00;2.20;;;1.90;;
18740;SDS011;9499;52.472;13.448;2023-04-24T02:33:27;2.93;;;2.37;;
18740;SDS011;9499;52.472;13.448;2023-04-24T02:35:53;3.00;;;2.80;;
18740;SDS011;9499;52.472;13.448;2023-04-24T02:38:20;4.40;;;2.20;;
18740;SDS011;9499;52.472;13.448;2023-04-24T02:40:46;2.97;;;2.67;;
18740;SDS011;9499;52.472;13.448;2023-04-24T02:43:13;2.20;;;2.00;;
18740;SDS011;9499;52.472;13.448;2023-04-24T02:45:39;2.80;;;2.50;;
18740;SDS011;9499;52.472;13.448;2023-04-24T02:48:07;2.50;;;1.80;;
18740;SDS011;9499;52.472;13.448;2023-04-24T02:50:34;2.23;;;1.53;;
18740;SDS011;9499;52.472;13.448;2023-04-24T02:53:00;2.80;;;2.50;;
18740;SDS011;9499;52.472;13.448;2023-04-24T02:55:27;2.40;;;1.97;;
18740;SDS011;9499;52.472;13.448;2023-04-24T02:57:54;3.00;;;2.43;;
18740;SDS011;9499;52.472;13.448;2023-04-24T03:00:20;2.93;;;2.50;;
18740;SDS011;9499;52.472;13.448;2023-04-24T03:02:47;2.27;;;2.00;;
18740;SDS011;9499;52.472;13.448;2023-04-24T03:05:15;2.97;;;2.67;;
18740;SDS011;9499;52.472;13.448;2023-04-24T03:07:42;7.63;;;3.20;;
18740;SDS011;9499;52.472;13.448;2023-04-24T03:10:09;2.87;;;1.97;;
18740;SDS011;9499;52.472;13.448;2023-04-24T03:12:36;5.73;;;2.90;;
18740;SDS011;9499;52.472;13.448;2023-04-24T03:15:02;2.33;;;2.00;;
18740;SDS011;9499;52.472;13.448;2023-04-24T03:17:29;3.00;;;2.30;;
18740;SDS011;9499;52.472;13.448;2023-04-24T03:19:56;3.30;;;2.93;;
18740;SDS011;9499;52.472;13.448;2023-04-24T03:22:24;6.73;;;2.70;;
18740;SDS011;9499;52.472;13.448;2023-04-24T03:24:51;3.00;;;1.63;;
18740;SDS011;9499;52.472;13.448;2023-04-24T03:27:17;5.70;;;2.07;;
18740;SDS011;9499;52.472;13.448;2023-04-24T03:29:44;2.30;;;2.13;;
18740;SDS011;9499;52.472;13.448;2023-04-24T03:32:10;3.13;;;2.50;;
18740;SDS011;9499;52.472;13.448;2023-04-24T03:34:37;2.57;;;2.37;;
18740;SDS011;9499;52.472;13.448;2023-04-24T03:37:03;2.23;;;1.60;;
18740;SDS011;9499;52.472;13.448;2023-04-24T03:39:31;3.10;;;2.63;;
18740;SDS011;9499;52.472;13.448;2023-04-24T03:41:58;5.30;;;2.37;;
18740;SDS011;9499;52.472;13.448;2023-04-24T03:44:25;6.00;;;2.73;;
18740;SDS011;9499;52.472;13.448;2023-04-24T03:46:51;2.50;;;2.00;;
18740;SDS011;9499;52.472;13.448;2023-04-24T03:49:18;3.50;;;2.90;;
18740;SDS011;9499;52.472;13.448;2023-04-24T03:51:45;3.27;;;2.77;;
18740;SDS011;9499;52.472;13.448;2023-04-24T03:54:12;2.33;;;1.80;;
18740;SDS011;9499;52.472;13.448;2023-04-24T03:56:40;2.53;;;2.10;;
18740;SDS011;9499;52.472;13.448;2023-04-24T03:59:06;3.07;;;2.13;;
18740;SDS011;9499;52.472;13.448;2023-04-24T04:01:33;2.63;;;2.20;;
18740;SDS011;9499;52.472;13.448;2023-04-24T04:04:01;2.70;;;1.90;;
18740;SDS011;9499;52.472;13.448;2023-04-24T04:06:28;3.20;;;2.43;;
18740;SDS011;9499;52.472;13.448;2023-04-24T04:08:55;2.70;;;2.03;;
18740;SDS011;9499;52.472;13.448;2023-04-24T04:11:22;4.93;;;3.10;;
18740;SDS011;9499;52.472;13.448;2023-04-24T04:13:50;4.30;;;3.50;;
18740;SDS011;9499;52.472;13.448;2023-04-24T04:16:16;4.27;;;2.33;;
18740;SDS011;9499;52.472;13.448;2023-04-24T04:18:43;2.20;;;1.60;;
18740;SDS011;9499;52.472;13.448;2023-04-24T04:21:10;4.20;;;1.80;;
18740;SDS011;9499;52.472;13.448;2023-04-24T04:23:36;2.30;;;2.10;;
18740;SDS011;9499;52.472;13.448;2023-04-24T04:26:03;2.27;;;2.07;;
18740;SDS011;9499;52.472;13.448;2023-04-24T04:28:30;3.50;;;2.20;;
18740;SDS011;9499;52.472;13.448;2023-04-24T04:30:58;3.67;;;1.97;;
18740;SDS011;9499;52.472;13.448;2023-04-24T04:33:25;3.40;;;1.40;;
18740;SDS011;9499;52.472;13.448;2023-04-24T04:35:52;3.23;;;2.93;;
18740;SDS011;9499;52.472;13.448;2023-04-24T04:38:21;3.03;;;2.30;;
18740;SDS011;9499;52.472;13.448;2023-04-24T04:40:48;2.20;;;2.00;;
18740;SDS011;9499;52.472;13.448;2023-04-24T04:43:15;2.47;;;2.27;;
18740;SDS011;9499;52.472;13.448;2023-04-24T04:45:41;4.00;;;2.83;;
18740;SDS011;9499;52.472;13.448;2023-04-24T04:48:09;5.13;;;3.13;;
18740;SDS011;9499;52.472;13.448;2023-04-24T04:50:38;2.50;;;2.30;;
18740;SDS011;9499;52.472;13.448;2023-04-24T04:53:05;2.17;;;1.70;;
18740;SDS011;9499;52.472;13.448;2023-04-24T04:55:31;2.73;;;2.33;;
18740;SDS011;9499;52.472;13.448;2023-04-24T04:57:58;2.20;;;2.00;;
18740;SDS011;9499;52.472;13.448;2023-04-24T05:00:26;4.30;;;2.83;;
18740;SDS011;9499;52.472;13.448;2023-04-24T05:02:54;3.33;;;2.80;;
18740;SDS011;9499;52.472;13.448;2023-04-24T05:05:22;3.30;;;2.37;;
18740;SDS011;9499;52.472;13.448;2023-04-24T05:07:48;3.30;;;2.00;;
18740;SDS011;9499;52.472;13.448;2023-04-24T05:10:15;2.53;;;2.33;;
18740;SDS011;9499;52.472;13.448;2023-04-24T05:12:41;2.10;;;1.90;;
18740;SDS011;9499;52.472;13.448;2023-04-24T05:15:08;4.70;;;3.20;;
18740;SDS011;9499;52.472;13.448;2023-04-24T05:17:35;3.67;;;2.47;;
18740;SDS011;9499;52.472;13.448;2023-04-24T05:20:02;2.37;;;1.50;;
18740;SDS011;9499;52.472;13.448;2023-04-24T05:22:31;3.80;;;2.30;;
18740;SDS011;9499;52.472;13.448;2023-04-24T05:24:58;2.13;;;1.73;;
18740;SDS011;9499;52.472;13.448;2023-04-24T05:27:24;3.30;;;2.00;;
18740;SDS011;9499;52.472;13.448;2023-04-24T05:29:51;2.30;;;2.20;;
18740;SDS011;9499;52.472;13.448;2023-04-24T05:32:17;2.60;;;2.00;;
18740;SDS011;9499;52.472;13.448;2023-04-24T05:34:44;2.10;;;1.90;;
18740;SDS011;9499;52.472;13.448;2023-04-24T05:37:11;2.47;;;1.67;;
18740;SDS011;9499;52.472;13.448;2023-04-24T05:39:39;1.87;;;1.60;;
18740;SDS011;9499;52.472;13.448;2023-04-24T05:42:06;2.53;;;1.83;;
18740;SDS011;9499;52.472;13.448;2023-04-24T05:44:33;1.80;;;1.50;;
18740;SDS011;9499;52.472;13.448;2023-04-24T05:46:59;2.33;;;1.60;;
18740;SDS011;9499;52.472;13.448;2023-04-24T05:49:26;1.67;;;1.57;;
18740;SDS011;9499;52.472;13.448;2023-04-24T05:51:53;3.83;;;1.80;;
18740;SDS011;9499;52.472;13.448;2023-04-24T05:54:19;1.57;;;1.30;;
18740;SDS011;9499;52.472;13.448;2023-04-24T05:56:47;1.73;;;1.47;;
18740;SDS011;9499;52.472;13.448;2023-04-24T05:59:15;2.53;;;2.03;;
18740;SDS011;9499;52.472;13.448;2023-04-24T06:01:41;2.23;;;1.53;;
18740;SDS011;9499;52.472;13.448;2023-04-24T06:04:08;1.77;;;1.20;;
18740;SDS011;9499;52.472;13.448;2023-04-24T06:06:34;1.30;;;0.90;;
18740;SDS011;9499;52.472;13.448;2023-04-24T06:09:01;1.87;;;1.60;;
18740;SDS011;9499;52.472;13.448;2023-04-24T06:11:28;1.40;;;1.20;;
18740;SDS011;9499;52.472;13.448;2023-04-24T06:13:56;2.00;;;1.30;;
18740;SDS011;9499;52.472;13.448;2023-04-24T06:16:23;1.87;;;1.30;;
18740;SDS011;9499;52.472;13.448;2023-04-24T06:18:49;1.10;;;0.90;;
18740;SDS011;9499;52.472;13.448;2023-04-24T06:21:16;1.53;;;1.20;;
18740;SDS011;9499;52.472;13.448;2023-04-24T06:23:43;1.20;;;1.00;;
18740;SDS011;9499;52.472;13.448;2023-04-24T06:26:11;1.33;;;1.10;;
18740;SDS011;9499;52.472;13.448;2023-04-24T06:28:37;1.27;;;1.00;;
18740;SDS011;9499;52.472;13.448;2023-04-24T06:31:05;1.33;;;1.23;;
18740;SDS011;9499;52.472;13.448;2023-04-24T06:33:32;1.70;;;1.47;;
18740;SDS011;9499;52.472;13.448;2023-04-24T06:35:58;1.70;;;1.47;;
18740;SDS011;9499;52.472;13.448;2023-04-24T06:38:25;1.73;;;1.30;;
18740;SDS011;9499;52.472;13.448;2023-04-24T06:40:51;1.10;;;1.00;;
18740;SDS011;9499;52.472;13.448;2023-04-24T06:43:18;1.67;;;1.20;;
18740;SDS011;9499;52.472;13.448;2023-04-24T06:45:45;1.37;;;1.00;;
18740;SDS011;9499;52.472;13.448;2023-04-24T06:48:13;1.40;;;1.20;;
18740;SDS011;9499;52.472;13.448;2023-04-24T06:50:40;1.93;;;1.20;;
18740;SDS011;9499;52.472;13.448;2023-04-24T06:53:06;1.77;;;1.67;;
18740;SDS011;9499;52.472;13.448;2023-04-24T06:55:35;1.30;;;1.10;;
18740;SDS011;9499;52.472;13.448;2023-04-24T06:58:02;1.87;;;1.30;;
18740;SDS011;9499;52.472;13.448;2023-04-24T07:00:29;1.67;;;1.37;;
18740;SDS011;9499;52.472;13.448;2023-04-24T07:02:55;1.73;;;1.40;;
18740;SDS011;9499;52.472;13.448;2023-04-24T07:05:23;1.13;;;0.80;;
18740;SDS011;9499;52.472;13.448;2023-04-24T07:07:50;2.37;;;1.20;;
18740;SDS011;9499;52.472;13.448;2023-04-24T07:10:17;1.57;;;1.47;;
18740;SDS011;9499;52.472;13.448;2023-04-24T07:12:45;2.27;;;1.27;;
18740;SDS011;9499;52.472;13.448;2023-04-24T07:15:11;1.20;;;1.03;;
18740;SDS011;9499;52.472;13.448;2023-04-24T07:17:38;1.57;;;1.10;;
18740;SDS011;9499;52.472;13.448;2023-04-24T07:20:08;1.40;;;1.00;;
18740;SDS011;9499;52.472;13.448;2023-04-24T07:22:38;1.40;;;1.07;;
18740;SDS011;9499;52.472;13.448;2023-04-24T07:25:05;1.77;;;1.07;;
18740;SDS011;9499;52.472;13.448;2023-04-24T07:27:33;1.50;;;1.27;;
18740;SDS011;9499;52.472;13.448;2023-04-24T07:30:00;1.40;;;1.17;;
18740;SDS011;9499;52.472;13.448;2023-04-24T07:32:27;1.30;;;0.90;;
18740;SDS011;9499;52.472;13.448;2023-04-24T07:34:53;1.10;;;0.73;;
18740;SDS011;9499;52.472;13.448;2023-04-24T07:37:20;1.20;;;0.90;;
18740;SDS011;9499;52.472;13.448;2023-04-24T07:39:48;1.80;;;1.00;;
18740;SDS011;9499;52.472;13.448;2023-04-24T07:42:15;1.30;;;0.97;;
18740;SDS011;9499;52.472;13.448;2023-04-24T07:44:41;1.43;;;0.80;;
18740;SDS011;9499;52.472;13.448;2023-04-24T07:47:08;1.27;;;0.93;;
18740;SDS011;9499;52.472;13.448;2023-04-24T07:49:34;1.20;;;0.70;;
18740;SDS011;9499;52.472;13.448;2023-04-24T07:52:01;1.73;;;1.10;;
18740;SDS011;9499;52.472;13.448;2023-04-24T07:54:28;1.23;;;0.80;;
18740;SDS011;9499;52.472;13.448;2023-04-24T07:56:56;1.73;;;0.90;;
18740;SDS011;9499;52.472;13.448;2023-04-24T07:59:22;1.10;;;0.70;;
18740;SDS011;9499;52.472;13.448;2023-04-24T08:01:49;1.20;;;0.90;;
18740;SDS011;9499;52.472;13.448;2023-04-24T08:04:15;2.37;;;1.00;;
18740;SDS011;9499;52.472;13.448;2023-04-24T08:06:42;2.17;;;0.87;;
18740;SDS011;9499;52.472;13.448;2023-04-24T08:09:09;2.13;;;0.87;;
18740;SDS011;9499;52.472;13.448;2023-04-24T08:11:36;1.30;;;1.10;;
18740;SDS011;9499;52.472;13.448;2023-04-24T08:14:04;1.27;;;0.70;;
18740;SDS011;9499;52.472;13.448;2023-04-24T08:16:31;6.83;;;1.13;;
18740;SDS011;9499;52.472;13.448;2023-04-24T08:18:58;1.13;;;0.80;;
18740;SDS011;9499;52.472;13.448;2023-04-24T08:21:25;2.30;;;1.03;;
18740;SDS011;9499;52.472;13.448;2023-04-24T08:23:52;1.20;;;0.70;;
18740;SDS011;9499;52.472;13.448;2023-04-24T08:26:18;1.30;;;0.70;;
18740;SDS011;9499;52.472;13.448;2023-04-24T08:28:45;1.37;;;0.97;;
18740;SDS011;9499;52.472;13.448;2023-04-24T08:31:12;1.30;;;0.90;;
18740;SDS011;9499;52.472;13.448;2023-04-24T08:33:39;1.30;;;1.00;;
18740;SDS011;9499;52.472;13.448;2023-04-24T08:36:06;2.23;;;1.20;;
18740;SDS011;9499;52.472;13.448;2023-04-24T08:38:33;1.20;;;0.77;;
18740;SDS011;9499;52.472;13.448;2023-04-24T08:41:00;1.20;;;0.77;;
18740;SDS011;9499;52.472;13.448;2023-04-24T08:43:27;1.27;;;0.90;;
18740;SDS011;9499;52.472;13.448;2023-04-24T08:45:55;1.30;;;0.80;;
18740;SDS011;9499;52.472;13.448;2023-04-24T08:48:24;1.30;;;0.90;;
18740;SDS011;9499;52.472;13.448;2023-04-24T08:50:51;1.63;;;0.70;;
18740;SDS011;9499;52.472;13.448;2023-04-24T08:53:17;1.10;;;0.83;;
18740;SDS011;9499;52.472;13.448;2023-04-24T08:55:45;1.20;;;0.70;;
18740;SDS011;9499;52.472;13.448;2023-04-24T08:58:15;1.30;;;0.70;;
18740;SDS011;9499;52.472;13.448;2023-04-24T09:00:42;1.53;;;0.97;;
18740;SDS011;9499;52.472;13.448;2023-04-24T09:03:12;1.63;;;0.60;;
18740;SDS011;9499;52.472;13.448;2023-04-24T09:05:41;1.10;;;0.70;;
18740;SDS011;9499;52.472;13.448;2023-04-24T09:08:10;1.23;;;0.73;;
18740;SDS011;9499;52.472;13.448;2023-04-24T09:10:38;1.60;;;1.20;;
18740;SDS011;9499;52.472;13.448;2023-04-24T09:13:06;1.20;;;0.60;;
18740;SDS011;9499;52.472;13.448;2023-04-24T09:15:34;1.40;;;0.73;;
18740;SDS011;9499;52.472;13.448;2023-04-24T09:18:00;1.40;;;0.90;;
18740;SDS011;9499;52.472;13.448;2023-04-24T09:20:27;1.33;;;0.83;;
18740;SDS011;9499;52.472;13.448;2023-04-24T09:22:55;1.13;;;0.60;;
18740;SDS011;9499;52.472;13.448;2023-04-24T09:25:23;1.20;;;0.80;;
18740;SDS011;9499;52.472;13.448;2023-04-24T09:27:59;1.50;;;1.00;;
18740;SDS011;9499;52.472;13.448;2023-04-24T09:30:26;1.40;;;0.80;;
18740;SDS011;9499;52.472;13.448;2023-04-24T09:35:40;1.87;;;1.30;;
18740;SDS011;9499;52.472;13.448;2023-04-24T09:38:09;1.73;;;0.90;;
18740;SDS011;9499;52.472;13.448;2023-04-24T09:40:36;1.20;;;0.77;;
18740;SDS011;9499;52.472;13.448;2023-04-24T09:43:02;1.10;;;0.73;;
18740;SDS011;9499;52.472;13.448;2023-04-24T09:45:34;1.57;;;0.90;;
18740;SDS011;9499;52.472;13.448;2023-04-24T09:48:01;1.10;;;0.70;;
18740;SDS011;9499;52.472;13.448;2023-04-24T09:50:30;1.10;;;0.70;;
18740;SDS011;9499;52.472;13.448;2023-04-24T09:52:59;1.40;;;1.03;;
18740;SDS011;9499;52.472;13.448;2023-04-24T09:55:30;1.20;;;0.80;;
18740;SDS011;9499;52.472;13.448;2023-04-24T09:57:57;1.30;;;1.00;;
18740;SDS011;9499;52.472;13.448;2023-04-24T10:00:25;1.10;;;0.70;;
18740;SDS011;9499;52.472;13.448;2023-04-24T10:02:56;1.30;;;0.90;;
18740;SDS011;9499;52.472;13.448;2023-04-24T10:05:24;2.43;;;0.90;;
18740;SDS011;9499;52.472;13.448;2023-04-24T10:07:55;2.27;;;1.10;;
18740;SDS011;9499;52.472;13.448;2023-04-24T10:10:22;1.43;;;1.03;;
18740;SDS011;9499;52.472;13.448;2023-04-24T10:12:51;1.10;;;0.60;;
18740;SDS011;9499;52.472;13.448;2023-04-24T10:15:18;3.33;;;1.23;;
18740;SDS011;9499;52.472;13.448;2023-04-24T10:17:46;1.20;;;0.60;;
18740;SDS011;9499;52.472;13.448;2023-04-24T10:20:17;1.97;;;0.80;;
18740;SDS011;9499;52.472;13.448;2023-04-24T10:22:45;1.30;;;0.70;;
18740;SDS011;9499;52.472;13.448;2023-04-24T10:25:14;1.30;;;0.70;;
18740;SDS011;9499;52.472;13.448;2023-04-24T10:27:42;1.17;;;0.60;;
18740;SDS011;9499;52.472;13.448;2023-04-24T10:30:11;1.43;;;0.70;;
18740;SDS011;9499;52.472;13.448;2023-04-24T10:32:39;1.20;;;0.70;;
18740;SDS011;9499;52.472;13.448;2023-04-24T10:35:06;1.70;;;0.70;;
18740;SDS011;9499;52.472;13.448;2023-04-24T10:37:34;1.20;;;0.70;;
18740;SDS011;9499;52.472;13.448;2023-04-24T10:40:03;1.10;;;0.60;;
18740;SDS011;9499;52.472;13.448;2023-04-24T10:42:30;1.30;;;0.70;;
18740;SDS011;9499;52.472;13.448;2023-04-24T10:44:57;1.30;;;0.70;;
18740;SDS011;9499;52.472;13.448;2023-04-24T10:47:24;1.10;;;0.67;;
18740;SDS011;9499;52.472;13.448;2023-04-24T10:49:51;1.13;;;0.63;;
18740;SDS011;9499;52.472;13.448;2023-04-24T10:52:18;1.30;;;0.87;;
18740;SDS011;9499;52.472;13.448;2023-04-24T10:54:46;1.10;;;0.60;;
18740;SDS011;9499;52.472;13.448;2023-04-24T10:57:27;1.30;;;0.87;;
18740;SDS011;9499;52.472;13.448;2023-04-24T11:00:10;1.30;;;0.70;;
18740;SDS011;9499;52.472;13.448;2023-04-24T11:02:41;1.27;;;0.80;;
18740;SDS011;9499;52.472;13.448;2023-04-24T11:05:14;1.63;;;1.13;;
18740;SDS011;9499;52.472;13.448;2023-04-24T11:10:39;1.20;;;0.87;;
18740;SDS011;9499;52.472;13.448;2023-04-24T11:13:06;1.23;;;0.87;;
18740;SDS011;9499;52.472;13.448;2023-04-24T11:15:34;4.00;;;0.97;;
18740;SDS011;9499;52.472;13.448;2023-04-24T11:18:02;1.10;;;0.70;;
18740;SDS011;9499;52.472;13.448;2023-04-24T11:20:28;2.13;;;1.27;;
18740;SDS011;9499;52.472;13.448;2023-04-24T11:22:55;1.60;;;1.00;;
18740;SDS011;9499;52.472;13.448;2023-04-24T11:25:29;1.40;;;0.80;;
18740;SDS011;9499;52.472;13.448;2023-04-24T11:28:02;1.60;;;1.00;;
18740;SDS011;9499;52.472;13.448;2023-04-24T11:30:30;1.80;;;0.93;;
18740;SDS011;9499;52.472;13.448;2023-04-24T11:33:02;1.90;;;0.80;;
18740;SDS011;9499;52.472;13.448;2023-04-24T11:35:30;1.60;;;1.30;;
18740;SDS011;9499;52.472;13.448;2023-04-24T11:38:02;1.50;;;1.20;;
18740;SDS011;9499;52.472;13.448;2023-04-24T11:40:30;2.60;;;1.27;;
18740;SDS011;9499;52.472;13.448;2023-04-24T11:42:59;1.80;;;1.20;;
18740;SDS011;9499;52.472;13.448;2023-04-24T11:45:26;1.20;;;0.80;;
18740;SDS011;9499;52.472;13.448;2023-04-24T11:47:54;2.03;;;1.27;;
18740;SDS011;9499;52.472;13.448;2023-04-24T11:50:22;1.60;;;1.07;;
18740;SDS011;9499;52.472;13.448;2023-04-24T11:52:52;1.60;;;1.10;;
18740;SDS011;9499;52.472;13.448;2023-04-24T11:55:25;2.50;;;1.00;;
18740;SDS011;9499;52.472;13.448;2023-04-24T11:57:54;2.17;;;1.17;;
18740;SDS011;9499;52.472;13.448;2023-04-24T12:00:23;1.30;;;1.20;;
18740;SDS011;9499;52.472;13.448;2023-04-24T12:02:51;2.27;;;1.60;;
18740;SDS011;9499;52.472;13.448;2023-04-24T12:05:22;3.00;;;2.60;;
18740;SDS011;9499;52.472;13.448;2023-04-24T12:07:50;2.03;;;1.10;;
18740;SDS011;9499;52.472;13.448;2023-04-24T12:10:19;1.30;;;0.90;;
18740;SDS011;9499;52.472;13.448;2023-04-24T12:12:46;1.30;;;1.00;;
18740;SDS011;9499;52.472;13.448;2023-04-24T12:15:15;1.30;;;0.90;;
18740;SDS011;9499;52.472;13.448;2023-04-24T12:17:43;1.23;;;0.80;;
18740;SDS011;9499;52.472;13.448;2023-04-24T12:20:10;1.47;;;1.07;;
18740;SDS011;9499;52.472;13.448;2023-04-24T12:22:45;1.40;;;0.90;;
18740;SDS011;9499;52.472;13.448;2023-04-24T12:25:12;1.30;;;1.10;;
18740;SDS011;9499;52.472;13.448;2023-04-24T12:27:40;1.20;;;0.70;;
18740;SDS011;9499;52.472;13.448;2023-04-24T12:30:10;1.30;;;0.80;;
18740;SDS011;9499;52.472;13.448;2023-04-24T12:32:40;1.30;;;0.90;;
18740;SDS011;9499;52.472;13.448;2023-04-24T12:35:08;1.30;;;0.80;;
18740;SDS011;9499;52.472;13.448;2023-04-24T12:37:35;1.20;;;0.60;;
18740;SDS011;9499;52.472;13.448;2023-04-24T12:40:03;1.43;;;0.93;;
18740;SDS011;9499;52.472;13.448;2023-04-24T12:42:32;1.20;;;0.70;;
18740;SDS011;9499;52.472;13.448;2023-04-24T12:45:00;1.17;;;0.77;;
18740;SDS011;9499;52.472;13.448;2023-04-24T12:47:30;1.97;;;1.77;;
18740;SDS011;9499;52.472;13.448;2023-04-24T12:49:57;1.20;;;0.63;;
18740;SDS011;9499;52.472;13.448;2023-04-24T12:52:24;1.20;;;0.60;;
18740;SDS011;9499;52.472;13.448;2023-04-24T12:54:52;1.20;;;0.70;;
18740;SDS011;9499;52.472;13.448;2023-04-24T12:57:21;1.90;;;0.90;;
18740;SDS011;9499;52.472;13.448;2023-04-24T12:59:48;1.20;;;0.70;;
18740;SDS011;9499;52.472;13.448;2023-04-24T13:02:15;1.10;;;0.50;;
18740;SDS011;9499;52.472;13.448;2023-04-24T13:04:43;1.40;;;1.00;;
18740;SDS011;9499;52.472;13.448;2023-04-24T13:07:10;2.07;;;0.70;;
18740;SDS011;9499;52.472;13.448;2023-04-24T13:09:37;1.20;;;0.67;;
18740;SDS011;9499;52.472;13.448;2023-04-24T13:12:04;1.67;;;1.17;;
18740;SDS011;9499;52.472;13.448;2023-04-24T13:14:32;1.30;;;0.77;;
18740;SDS011;9499;52.472;13.448;2023-04-24T13:16:59;1.20;;;0.57;;
18740;SDS011;9499;52.472;13.448;2023-04-24T13:19:26;1.87;;;0.80;;
18740;SDS011;9499;52.472;13.448;2023-04-24T13:21:53;2.53;;;0.70;;
18740;SDS011;9499;52.472;13.448;2023-04-24T13:24:21;1.17;;;0.63;;
18740;SDS011;9499;52.472;13.448;2023-04-24T13:26:49;1.57;;;0.73;;
18740;SDS011;9499;52.472;13.448;2023-04-24T13:29:16;1.10;;;0.50;;
18740;SDS011;9499;52.472;13.448;2023-04-24T13:31:44;1.10;;;0.60;;
18740;SDS011;9499;52.472;13.448;2023-04-24T13:34:12;1.10;;;0.60;;
18740;SDS011;9499;52.472;13.448;2023-04-24T13:36:38;1.10;;;0.60;;
18740;SDS011;9499;52.472;13.448;2023-04-24T13:39:05;1.50;;;0.70;;
18740;SDS011;9499;52.472;13.448;2023-04-24T13:41:32;1.30;;;0.60;;
18740;SDS011;9499;52.472;13.448;2023-04-24T13:44:00;2.00;;;1.00;;
18740;SDS011;9499;52.472;13.448;2023-04-24T13:46:26;1.10;;;0.60;;
18740;SDS011;9499;52.472;13.448;2023-04-24T13:48:54;1.10;;;0.60;;
18740;SDS011;9499;52.472;13.448;2023-04-24T13:51:21;1.20;;;0.60;;
18740;SDS011;9499;52.472;13.448;2023-04-24T13:53:48;1.80;;;0.90;;
18740;SDS011;9499;52.472;13.448;2023-04-24T13:56:14;1.20;;;0.60;;
18740;SDS011;9499;52.472;13.448;2023-04-24T13:58:41;1.10;;;0.60;;
18740;SDS011;9499;52.472;13.448;2023-04-24T14:01:07;1.10;;;0.60;;
18740;SDS011;9499;52.472;13.448;2023-04-24T14:03:34;1.10;;;0.50;;
18740;SDS011;9499;52.472;13.448;2023-04-24T14:06:04;1.30;;;0.70;;
18740;SDS011;9499;52.472;13.448;2023-04-24T14:08:31;1.10;;;0.50;;
18740;SDS011;9499;52.472;13.448;2023-04-24T14:10:57;5.23;;;1.20;;
18740;SDS011;9499;52.472;13.448;2023-04-24T14:13:24;1.30;;;0.70;;
18740;SDS011;9499;52.472;13.448;2023-04-24T14:15:50;1.20;;;0.57;;
18740;SDS011;9499;52.472;13.448;2023-04-24T14:18:17;1.20;;;0.60;;
18740;SDS011;9499;52.472;13.448;2023-04-24T14:20:44;1.40;;;0.60;;
18740;SDS011;9499;52.472;13.448;2023-04-24T14:23:11;1.20;;;0.60;;
18740;SDS011;9499;52.472;13.448;2023-04-24T14:25:38;1.20;;;0.60;;
18740;SDS011;9499;52.472;13.448;2023-04-24T14:28:05;2.00;;;0.80;;
18740;SDS011;9499;52.472;13.448;2023-04-24T14:30:32;1.87;;;0.80;;
18740;SDS011;9499;52.472;13.448;2023-04-24T14:32:58;1.20;;;0.70;;
18740;SDS011;9499;52.472;13.448;2023-04-24T14:35:25;1.87;;;0.93;;
18740;SDS011;9499;52.472;13.448;2023-04-24T14:37:53;1.10;;;0.60;;
18740;SDS011;9499;52.472;13.448;2023-04-24T14:40:21;1.20;;;0.60;;
18740;SDS011;9499;52.472;13.448;2023-04-24T14:42:48;1.37;;;0.70;;
18740;SDS011;9499;52.472;13.448;2023-04-24T14:45:15;1.23;;;0.80;;
18740;SDS011;9499;52.472;13.448;2023-04-24T14:47:41;1.40;;;0.73;;
18740;SDS011;9499;52.472;13.448;2023-04-24T14:50:08;1.10;;;0.53;;
18740;SDS011;9499;52.472;13.448;2023-04-24T14:52:35;1.20;;;0.70;;
18740;SDS011;9499;52.472;13.448;2023-04-24T14:55:02;1.80;;;0.87;;